Time;durP1;ratioP1;P1;durP2;ratioP2;P2;SDS_P1;SDS_P2;PMS_P1;PMS_P2;Temp;Humidity;BMP_temperature;BMP_pressure;BME280_temperature;BME280_humidity;BME280_pressure;Samples;Min_cycle;Max_cycle;Signal;HPM_P1;HPM_P2
2022/07/30 14:50:00;;;;;;;4.90;2.83;;;22.70;70.10;;;;;;2123053;27;20349;-90
2022/07/30 14:51:02;;;;;;;4.10;2.08;;;22.80;69.50;;;;;;2104459;28;20258;-87
2022/07/30 14:52:03;;;;;;;4.28;2.00;;;22.80;69.40;;;;;;2089999;28;20029;-86
2022/07/30 14:53:04;;;;;;;2.80;1.70;;;22.80;69.20;;;;;;2103337;28;20310;-88
2022/07/30 14:54:05;;;;;;;4.63;2.73;;;22.80;69.10;;;;;;2097824;28;20075;-90
2022/07/30 14:55:07;;;;;;;9.03;4.93;;;22.80;69.30;;;;;;2102511;28;20059;-92
2022/07/30 14:56:08;;;;;;;7.93;4.03;;;22.80;69.10;;;;;;2102493;28;20035;-90
2022/07/30 14:57:09;;;;;;;4.47;2.43;;;22.80;69.10;;;;;;2098073;28;20419;-90
2022/07/30 14:58:10;;;;;;;6.00;3.57;;;22.90;68.80;;;;;;2105775;28;20289;-90
2022/07/30 14:59:11;;;;;;;4.47;2.00;;;22.80;68.80;;;;;;2105436;28;20056;-89
2022/07/30 15:00:12;;;;;;;4.43;2.90;;;22.80;68.50;;;;;;2101470;28;20021;-89
2022/07/30 15:01:13;;;;;;;6.32;2.13;;;22.90;68.70;;;;;;2096957;28;20032;-89
2022/07/30 15:02:14;;;;;;;3.43;2.20;;;22.90;68.50;;;;;;2087864;28;20187;-90
2022/07/30 15:03:15;;;;;;;2.50;1.45;;;22.80;68.30;;;;;;2104788;28;20126;-89
2022/07/30 15:04:16;;;;;;;3.90;2.20;;;22.80;68.10;;;;;;2096234;28;20033;-90
2022/07/30 15:05:17;;;;;;;3.30;1.98;;;22.80;68.20;;;;;;2080380;28;20427;-90
2022/07/30 15:06:18;;;;;;;4.20;2.07;;;22.80;68.30;;;;;;2087955;28;20065;-89
2022/07/30 15:07:18;;;;;;;5.43;2.70;;;22.80;68.20;;;;;;2088303;28;20033;-89
2022/07/30 15:08:20;;;;;;;6.80;3.87;;;22.80;68.20;;;;;;2093652;28;20531;-88
2022/07/30 15:09:20;;;;;;;6.13;4.05;;;22.80;68.30;;;;;;2105839;28;20227;-89
2022/07/30 15:10:21;;;;;;;7.73;3.73;;;22.80;68.10;;;;;;2106225;28;20028;-89
2022/07/30 15:11:23;;;;;;;13.90;6.77;;;22.80;68.20;;;;;;2089369;28;20017;-89
2022/07/30 15:12:24;;;;;;;10.50;6.35;;;22.80;68.10;;;;;;2089132;28;20273;-89
2022/07/30 15:13:24;;;;;;;6.63;3.97;;;22.80;68.10;;;;;;2083620;28;20030;-89
2022/07/30 15:14:25;;;;;;;6.33;3.63;;;22.80;68.00;;;;;;2089001;28;20036;-89
2022/07/30 15:15:26;;;;;;;3.93;2.67;;;22.80;67.80;;;;;;2088174;28;20489;-89
2022/07/30 15:16:27;;;;;;;6.40;2.13;;;22.80;67.70;;;;;;2089249;28;20367;-88
2022/07/30 15:17:28;;;;;;;5.10;3.47;;;22.80;68.00;;;;;;2086213;28;20029;-88
2022/07/30 15:18:29;;;;;;;6.63;3.57;;;22.80;67.60;;;;;;2098448;28;20062;-88
2022/07/30 15:19:29;;;;;;;5.87;3.37;;;22.80;67.90;;;;;;2101507;28;20067;-89
2022/07/30 15:20:30;;;;;;;7.87;4.10;;;22.80;67.90;;;;;;2090253;28;20060;-89
2022/07/30 15:21:31;;;;;;;7.40;3.67;;;22.80;67.90;;;;;;2085472;28;20491;-88
2022/07/30 15:22:32;;;;;;;8.23;3.17;;;22.80;67.70;;;;;;2097369;28;20459;-89
2022/07/30 15:23:33;;;;;;;5.18;3.70;;;22.80;67.50;;;;;;2086745;28;20021;-88
2022/07/30 15:24:34;;;;;;;5.37;3.60;;;22.80;68.50;;;;;;2096113;28;20050;-88
2022/07/30 15:25:35;;;;;;;3.27;1.87;;;22.80;67.70;;;;;;2102641;28;20038;-88
2022/07/30 15:26:35;;;;;;;8.33;3.10;;;22.80;67.90;;;;;;2098851;28;20029;-88
2022/07/30 15:27:36;;;;;;;4.80;2.73;;;22.80;67.70;;;;;;2088870;28;20091;-89
2022/07/30 15:28:37;;;;;;;4.13;2.47;;;22.80;67.90;;;;;;2099943;28;20032;-89
2022/07/30 15:29:38;;;;;;;5.27;2.93;;;22.80;68.00;;;;;;2097094;28;20028;-89
2022/07/30 15:30:40;;;;;;;8.40;4.00;;;22.80;68.00;;;;;;2088792;28;20270;-89
2022/07/30 15:31:40;;;;;;;6.00;3.10;;;22.80;68.10;;;;;;2093373;28;20032;-89
2022/07/30 15:32:41;;;;;;;8.57;3.33;;;22.80;68.00;;;;;;2096575;28;20021;-89
2022/07/30 15:33:43;;;;;;;5.93;2.73;;;22.80;68.20;;;;;;2095724;28;20031;-88
2022/07/30 15:34:44;;;;;;;7.85;4.43;;;22.80;68.20;;;;;;2104283;28;20085;-88
2022/07/30 15:35:45;;;;;;;7.43;3.17;;;22.80;68.20;;;;;;2101869;28;20086;-88
2022/07/30 15:36:46;;;;;;;9.67;4.50;;;22.80;68.30;;;;;;2097425;28;20024;-88
2022/07/30 15:37:46;;;;;;;7.43;3.80;;;22.80;68.20;;;;;;2098873;28;20571;-88
2022/07/30 15:38:47;;;;;;;7.13;3.53;;;22.80;68.20;;;;;;2089936;28;20454;-88
2022/07/30 15:39:48;;;;;;;4.67;3.00;;;22.90;68.40;;;;;;2097478;28;20488;-88
2022/07/30 15:40:49;;;;;;;4.17;2.10;;;22.90;68.30;;;;;;2091121;28;20063;-88
2022/07/30 15:41:52;;;;;;;5.63;2.60;;;22.90;68.60;;;;;;2092640;28;20025;-88
2022/07/30 15:42:53;;;;;;;3.95;2.38;;;22.90;68.60;;;;;;2097514;28;20020;-88
2022/07/30 15:43:54;;;;;;;3.80;1.70;;;22.90;68.50;;;;;;2092401;28;20025;-88
2022/07/30 15:44:55;;;;;;;3.20;2.03;;;22.90;68.60;;;;;;2105930;28;20032;-85
2022/07/30 15:45:56;;;;;;;4.15;2.10;;;22.90;69.00;;;;;;2100414;28;20089;-85
2022/07/30 15:46:58;;;;;;;3.40;2.10;;;22.90;68.80;;;;;;2091019;28;20064;-85
2022/07/30 15:47:59;;;;;;;4.43;2.35;;;22.90;68.80;;;;;;2098062;28;20067;-85
2022/07/30 15:49:01;;;;;;;5.97;2.53;;;22.90;68.70;;;;;;2093496;28;20036;-86
2022/07/30 15:50:02;;;;;;;;;;;22.90;68.60;;;;;;2097648;28;20048;-85
2022/07/30 15:51:04;;;;;;;2.88;1.90;;;22.90;68.70;;;;;;2097425;28;20263;-86
2022/07/30 15:52:07;;;;;;;11.43;6.00;;;22.90;69.10;;;;;;2102959;28;20104;-86
2022/07/30 15:53:10;;;;;;;8.73;3.63;;;22.90;69.10;;;;;;2103448;28;20081;-88
2022/07/30 15:54:11;;;;;;;4.97;2.53;;;22.90;68.80;;;;;;2097201;28;20032;-88
2022/07/30 15:55:12;;;;;;;4.03;2.72;;;22.90;69.00;;;;;;2096152;28;20028;-87
2022/07/30 15:56:14;;;;;;;6.87;4.00;;;22.90;68.90;;;;;;2105479;28;20029;-87
2022/07/30 15:57:15;;;;;;;;;;;22.90;68.80;;;;;;2097053;28;20036;-88
2022/07/30 15:58:16;;;;;;;4.97;3.28;;;22.90;69.20;;;;;;2104499;28;19914;-88
2022/07/30 15:59:17;;;;;;;5.75;3.75;;;22.90;69.20;;;;;;2093308;28;20352;-89
2022/07/30 16:00:18;;;;;;;5.60;3.80;;;23.00;69.10;;;;;;2089219;28;20116;-88
2022/07/30 16:01:18;;;;;;;7.10;3.93;;;23.00;69.40;;;;;;2083218;28;20022;-88
2022/07/30 16:02:19;;;;;;;13.77;8.60;;;23.00;69.30;;;;;;2089707;28;20033;-89
2022/07/30 16:03:20;;;;;;;6.27;3.23;;;23.00;69.40;;;;;;2090179;28;20037;-88
2022/07/30 16:04:22;;;;;;;24.65;14.70;;;23.00;69.40;;;;;;2090286;28;20052;-88
2022/07/30 16:05:22;;;;;;;8.60;5.57;;;23.00;69.20;;;;;;2084352;28;20105;-88
2022/07/30 16:06:23;;;;;;;6.80;3.83;;;22.90;69.10;;;;;;2087812;28;20025;-88
2022/07/30 16:07:24;;;;;;;4.70;2.33;;;22.90;69.30;;;;;;2091909;28;20029;-88
2022/07/30 16:08:25;;;;;;;8.18;4.50;;;23.00;69.40;;;;;;2079510;28;20037;-89
2022/07/30 16:09:26;;;;;;;14.60;8.60;;;22.90;69.20;;;;;;2089961;28;20031;-86
2022/07/30 16:10:27;;;;;;;23.63;11.73;;;23.00;69.70;;;;;;2088199;28;20264;-86
2022/07/30 16:11:28;;;;;;;17.03;9.53;;;23.00;69.70;;;;;;2092092;28;20029;-87
2022/07/30 16:12:29;;;;;;;18.63;10.53;;;22.90;69.60;;;;;;2096442;28;20398;-87
2022/07/30 16:13:30;;;;;;;7.97;4.93;;;23.00;69.70;;;;;;2089306;28;20716;-88
2022/07/30 16:14:31;;;;;;;4.47;3.20;;;23.00;70.20;;;;;;2086176;28;20032;-87
2022/07/30 16:15:32;;;;;;;9.43;5.10;;;23.00;70.00;;;;;;2090535;28;20033;-87
2022/07/30 16:16:34;;;;;;;5.60;4.17;;;23.00;69.70;;;;;;2076652;28;20076;-86
2022/07/30 16:17:35;;;;;;;8.65;5.25;;;23.00;69.50;;;;;;2087148;28;20292;-87
2022/07/30 16:18:35;;;;;;;6.27;3.77;;;23.00;69.60;;;;;;2089793;28;20116;-88
2022/07/30 16:19:36;;;;;;;4.57;2.50;;;23.00;69.30;;;;;;2093996;28;20072;-86
2022/07/30 16:20:37;;;;;;;5.47;3.90;;;22.90;69.00;;;;;;2092496;28;20060;-87
2022/07/30 16:21:38;;;;;;;5.20;3.10;;;22.90;69.40;;;;;;2084728;28;20271;-86
2022/07/30 16:22:39;;;;;;;9.73;5.00;;;22.90;69.50;;;;;;2088780;28;20446;-85
2022/07/30 16:23:42;;;;;;;9.73;6.30;;;23.00;69.40;;;;;;2091190;28;20120;-86
2022/07/30 16:24:43;;;;;;;6.30;3.83;;;22.90;69.20;;;;;;2076979;28;20069;-86
2022/07/30 16:25:44;;;;;;;7.05;4.28;;;22.90;69.40;;;;;;2084208;28;20040;-87
2022/07/30 16:26:45;;;;;;;4.73;3.00;;;22.90;69.50;;;;;;2088775;28;20509;-87
2022/07/30 16:27:45;;;;;;;3.27;2.30;;;22.90;69.20;;;;;;2076336;28;20091;-87
2022/07/30 16:28:46;;;;;;;7.93;2.23;;;22.90;69.60;;;;;;2076278;28;20030;-86
2022/07/30 16:29:47;;;;;;;4.13;1.90;;;22.90;69.30;;;;;;2083138;28;20034;-87
2022/07/30 16:30:49;;;;;;;4.33;2.17;;;22.90;69.50;;;;;;2090524;28;20112;-87
2022/07/30 16:31:50;;;;;;;3.88;1.70;;;22.90;69.70;;;;;;2090925;28;20131;-86
2022/07/30 16:32:50;;;;;;;1.70;1.40;;;22.90;69.40;;;;;;2078337;28;20030;-86
2022/07/30 16:33:51;;;;;;;1.67;1.37;;;22.90;69.70;;;;;;2082503;28;20036;-86
2022/07/30 16:34:52;;;;;;;2.20;1.50;;;22.90;69.30;;;;;;2099584;28;20036;-87
2022/07/30 16:35:53;;;;;;;2.77;1.53;;;22.90;69.40;;;;;;2090611;28;20040;-86
2022/07/30 16:36:54;;;;;;;1.80;1.30;;;22.90;69.80;;;;;;2094695;28;20035;-86
2022/07/30 16:37:56;;;;;;;2.27;1.67;;;22.90;70.40;;;;;;2095707;28;20031;-87
2022/07/30 16:38:57;;;;;;;4.03;1.73;;;22.80;70.10;;;;;;2099797;28;20378;-86
2022/07/30 16:39:58;;;;;;;2.00;1.53;;;22.80;71.30;;;;;;2099770;28;20029;-85
2022/07/30 16:40:59;;;;;;;2.80;1.50;;;22.80;70.70;;;;;;2086162;28;20372;-85
2022/07/30 16:42:00;;;;;;;2.35;1.65;;;22.80;70.10;;;;;;2090587;28;20033;-85
2022/07/30 16:43:01;;;;;;;2.40;1.60;;;22.80;70.10;;;;;;2086658;28;20057;-85
2022/07/30 16:44:02;;;;;;;2.50;1.80;;;22.80;70.10;;;;;;2095561;28;20354;-86
2022/07/30 16:45:03;;;;;;;2.10;1.63;;;22.80;70.40;;;;;;2096789;28;20025;-86
2022/07/30 16:46:04;;;;;;;2.10;1.67;;;22.80;70.40;;;;;;2087011;28;20040;-86
2022/07/30 16:47:05;;;;;;;3.57;1.73;;;22.80;70.40;;;;;;2093944;28;20043;-85
2022/07/30 16:48:06;;;;;;;2.23;1.60;;;22.80;70.60;;;;;;2088054;28;20360;-86
2022/07/30 16:49:07;;;;;;;2.67;1.80;;;22.80;70.60;;;;;;2072791;28;20030;-86
2022/07/30 16:50:08;;;;;;;3.20;2.10;;;22.80;70.90;;;;;;2082316;28;20405;-87
2022/07/30 16:51:09;;;;;;;4.68;1.80;;;22.80;70.80;;;;;;2093385;28;20076;-87
2022/07/30 16:52:10;;;;;;;2.60;2.00;;;22.80;70.70;;;;;;2092110;28;20068;-87
2022/07/30 16:53:11;;;;;;;2.53;1.80;;;22.80;70.60;;;;;;2091733;28;20111;-87
2022/07/30 16:54:12;;;;;;;2.60;1.90;;;22.80;70.40;;;;;;2090690;28;20044;-86
2022/07/30 16:55:13;;;;;;;2.65;2.05;;;22.70;70.60;;;;;;2090725;28;20123;-87
2022/07/30 16:56:15;;;;;;;6.38;2.60;;;22.80;70.70;;;;;;2081340;28;20034;-88
2022/07/30 16:57:16;;;;;;;7.13;1.92;;;22.80;70.80;;;;;;2076044;28;20116;-87
2022/07/30 16:58:17;;;;;;;3.38;2.05;;;22.80;70.80;;;;;;2074441;28;20048;-88
2022/07/30 16:59:21;;;;;;;3.40;2.53;;;22.80;70.80;;;;;;2083106;28;20029;-87
2022/07/30 17:00:23;;;;;;;5.15;2.50;;;22.80;70.80;;;;;;2083659;28;20158;-87
2022/07/30 17:01:23;;;;;;;5.57;2.53;;;22.80;71.10;;;;;;2084359;28;20018;-88
2022/07/30 17:02:24;;;;;;;1.70;1.23;;;22.80;70.90;;;;;;2077786;28;20468;-88
2022/07/30 17:03:25;;;;;;;3.97;1.70;;;22.80;70.80;;;;;;2086695;28;20028;-87
2022/07/30 17:04:26;;;;;;;8.48;3.83;;;22.80;70.70;;;;;;2076106;28;20055;-87
2022/07/30 17:05:27;;;;;;;16.37;7.87;;;22.70;70.60;;;;;;2079251;28;20033;-86
2022/07/30 17:06:28;;;;;;;4.88;2.72;;;22.80;70.60;;;;;;2081878;28;20021;-86
2022/07/30 17:07:29;;;;;;;18.43;9.77;;;22.70;70.90;;;;;;2082814;28;20482;-87
2022/07/30 17:08:30;;;;;;;11.23;6.37;;;22.70;70.90;;;;;;2089377;28;20025;-86
2022/07/30 17:09:31;;;;;;;10.17;5.27;;;22.80;70.60;;;;;;2096820;28;20103;-87
2022/07/30 17:10:31;;;;;;;5.93;3.13;;;22.80;70.40;;;;;;2099271;28;20028;-87
2022/07/30 17:11:32;;;;;;;5.50;3.30;;;22.70;70.60;;;;;;2091354;28;20516;-88
2022/07/30 17:12:33;;;;;;;7.23;4.17;;;22.70;70.60;;;;;;2090329;28;20402;-86
2022/07/30 17:13:34;;;;;;;7.67;4.90;;;22.70;70.70;;;;;;2081923;28;20017;-87
2022/07/30 17:14:35;;;;;;;6.22;2.88;;;22.70;70.70;;;;;;2090770;28;20100;-86
2022/07/30 17:15:36;;;;;;;6.53;3.75;;;22.70;70.40;;;;;;2104500;28;20079;-87
2022/07/30 17:16:37;;;;;;;3.03;1.50;;;22.70;70.50;;;;;;2091587;28;20053;-87
2022/07/30 17:17:38;;;;;;;2.40;1.53;;;22.60;70.80;;;;;;2082539;28;20026;-87
2022/07/30 17:18:39;;;;;;;22.73;11.50;;;22.60;70.90;;;;;;2091108;28;20434;-86
2022/07/30 17:19:41;;;;;;;11.37;5.90;;;22.60;70.80;;;;;;2092170;28;20313;-87
2022/07/30 17:20:42;;;;;;;;;;;22.60;70.80;;;;;;2099885;28;20033;-88
2022/07/30 17:21:42;;;;;;;14.82;8.25;;;22.60;71.00;;;;;;2094178;28;19915;-88
2022/07/30 17:22:43;;;;;;;3.50;2.13;;;22.60;70.70;;;;;;2086547;28;20032;-86
2022/07/30 17:23:44;;;;;;;18.23;6.23;;;22.60;71.00;;;;;;2099893;28;20130;-87
2022/07/30 17:24:45;;;;;;;20.43;11.10;;;22.60;71.10;;;;;;2081551;28;20110;-88
2022/07/30 17:25:46;;;;;;;26.70;13.87;;;22.60;70.80;;;;;;2084401;28;20124;-87
2022/07/30 17:26:46;;;;;;;22.77;12.47;;;22.60;70.90;;;;;;2091309;28;20112;-87
2022/07/30 17:27:47;;;;;;;20.60;11.37;;;22.60;70.90;;;;;;2077382;28;20369;-86
2022/07/30 17:28:48;;;;;;;18.13;9.60;;;22.60;70.80;;;;;;2074920;28;20141;-86
2022/07/30 17:29:49;;;;;;;17.83;9.47;;;22.60;70.90;;;;;;2080502;28;20064;-85
2022/07/30 17:30:53;;;;;;;14.70;7.18;;;22.60;71.40;;;;;;2083041;28;20029;-86
2022/07/30 17:31:54;;;;;;;21.00;11.95;;;22.60;70.80;;;;;;2079118;28;20021;-86
2022/07/30 17:32:54;;;;;;;25.50;13.43;;;22.50;70.70;;;;;;2096836;28;20082;-86
2022/07/30 17:33:55;;;;;;;25.47;13.53;;;22.50;70.70;;;;;;2095605;28;20036;-87
2022/07/30 17:34:56;;;;;;;34.50;17.30;;;22.50;71.00;;;;;;2095599;28;20250;-87
2022/07/30 17:35:57;;;;;;;26.13;13.37;;;22.50;70.80;;;;;;2086470;28;20016;-86
2022/07/30 17:36:58;;;;;;;22.07;9.80;;;22.50;71.00;;;;;;2083004;28;20021;-87
2022/07/30 17:37:59;;;;;;;10.73;5.70;;;22.50;70.70;;;;;;2091120;28;20027;-86
2022/07/30 17:38:59;;;;;;;19.80;8.37;;;22.50;71.00;;;;;;2083247;28;20470;-86
2022/07/30 17:40:00;;;;;;;16.40;9.13;;;22.60;70.90;;;;;;2082432;28;20085;-87
2022/07/30 17:41:01;;;;;;;9.80;6.10;;;22.50;70.80;;;;;;2094127;28;20034;-87
2022/07/30 17:42:02;;;;;;;10.87;4.93;;;22.50;70.80;;;;;;2089813;28;20101;-86
2022/07/30 17:43:03;;;;;;;7.77;4.90;;;22.60;70.80;;;;;;2070679;28;20775;-86
2022/07/30 17:44:04;;;;;;;9.30;4.17;;;22.50;70.60;;;;;;2082098;28;20039;-87
2022/07/30 17:45:08;;;;;;;24.67;12.05;;;22.50;70.70;;;;;;2086453;28;20336;-86
2022/07/30 17:46:09;;;;;;;14.20;8.90;;;22.50;71.40;;;;;;2091295;28;20035;-86
2022/07/30 17:47:10;;;;;;;18.97;9.47;;;22.50;70.70;;;;;;2091077;28;20028;-86
2022/07/30 17:48:10;;;;;;;7.68;5.07;;;22.50;70.80;;;;;;2074832;28;20045;-86
2022/07/30 17:49:11;;;;;;;8.40;2.93;;;22.50;70.90;;;;;;2080596;28;20029;-86
2022/07/30 17:50:13;;;;;;;6.37;3.93;;;22.50;71.10;;;;;;2086318;28;20424;-87
2022/07/30 17:51:14;;;;;;;;;;;22.50;71.20;;;;;;2081699;28;20034;-86
2022/07/30 17:52:14;;;;;;;8.68;3.97;;;22.50;70.90;;;;;;2092006;28;20258;-86
2022/07/30 17:53:15;;;;;;;10.90;6.17;;;22.50;70.80;;;;;;2095048;28;20032;-87
2022/07/30 17:54:16;;;;;;;14.03;5.63;;;22.50;70.90;;;;;;2085034;28;20029;-87
2022/07/30 17:55:17;;;;;;;10.77;4.83;;;22.50;70.90;;;;;;2085697;28;20488;-86
2022/07/30 17:56:18;;;;;;;11.30;6.47;;;22.50;71.00;;;;;;2092569;28;20042;-86
2022/07/30 17:57:19;;;;;;;11.70;6.93;;;22.50;71.00;;;;;;2090944;28;20626;-86
2022/07/30 17:58:21;;;;;;;5.40;3.03;;;22.40;71.00;;;;;;2090666;28;20025;-87
2022/07/30 17:59:22;;;;;;;11.95;6.05;;;22.50;71.00;;;;;;2081284;28;20498;-87
2022/07/30 18:00:23;;;;;;;13.27;5.03;;;22.50;71.00;;;;;;2084544;28;20033;-87
2022/07/30 18:01:24;;;;;;;10.50;5.30;;;22.40;71.00;;;;;;2082508;28;20529;-87
2022/07/30 18:02:24;;;;;;;3.83;2.27;;;22.40;71.10;;;;;;2082959;28;20480;-86
2022/07/30 18:03:25;;;;;;;8.67;3.63;;;22.40;71.00;;;;;;2084195;28;20052;-87
2022/07/30 18:04:26;;;;;;;9.77;4.67;;;22.40;71.10;;;;;;2090798;28;20390;-87
2022/07/30 18:05:27;;;;;;;8.13;4.03;;;22.40;71.10;;;;;;2095072;28;20021;-87
2022/07/30 18:06:28;;;;;;;9.17;3.90;;;22.40;71.00;;;;;;2090879;28;20478;-87
2022/07/30 18:07:29;;;;;;;4.87;2.70;;;22.40;71.00;;;;;;2091180;28;20272;-87
2022/07/30 18:08:31;;;;;;;5.63;1.80;;;22.40;71.00;;;;;;2098544;28;20033;-87
2022/07/30 18:09:32;;;;;;;3.83;1.83;;;22.40;71.20;;;;;;2098316;28;20028;-88
2022/07/30 18:10:33;;;;;;;5.40;2.20;;;22.40;71.20;;;;;;2089760;28;20025;-88
2022/07/30 18:11:34;;;;;;;10.23;3.50;;;22.40;71.10;;;;;;2093160;28;20127;-87
2022/07/30 18:12:35;;;;;;;13.27;7.63;;;22.40;70.80;;;;;;2096705;28;20024;-86
2022/07/30 18:13:35;;;;;;;7.07;4.13;;;22.40;71.10;;;;;;2072905;28;20021;-86
2022/07/30 18:14:36;;;;;;;6.07;3.37;;;22.40;71.00;;;;;;2074480;28;20040;-87
2022/07/30 18:15:37;;;;;;;20.57;12.30;;;22.40;71.10;;;;;;2070492;28;20113;-87
2022/07/30 18:16:38;;;;;;;20.57;10.20;;;22.40;71.00;;;;;;2080085;28;20036;-87
2022/07/30 18:17:39;;;;;;;13.97;8.17;;;22.40;71.00;;;;;;2082737;28;20026;-87
2022/07/30 18:18:39;;;;;;;7.00;2.97;;;22.40;71.30;;;;;;2096485;28;20731;-88
2022/07/30 18:19:40;;;;;;;8.53;4.40;;;22.40;71.00;;;;;;2098764;28;20103;-88
2022/07/30 18:20:41;;;;;;;28.73;13.07;;;22.40;71.10;;;;;;2087242;28;20060;-87
2022/07/30 18:21:42;;;;;;;8.67;5.23;;;22.40;71.00;;;;;;2088241;28;20036;-86
2022/07/30 18:22:43;;;;;;;11.23;4.20;;;22.40;70.90;;;;;;2092908;28;20025;-86
2022/07/30 18:23:44;;;;;;;11.23;4.72;;;22.30;70.90;;;;;;2098628;28;20024;-85
2022/07/30 18:24:47;;;;;;;10.67;5.50;;;22.30;71.00;;;;;;2089526;28;20048;-87
2022/07/30 18:25:48;;;;;;;5.35;3.13;;;22.40;71.20;;;;;;2087374;28;20463;-87
2022/07/30 18:26:49;;;;;;;10.45;5.40;;;22.40;71.00;;;;;;2083508;28;20040;-87
2022/07/30 18:27:50;;;;;;;15.53;7.93;;;22.30;70.90;;;;;;2086224;28;20116;-87
2022/07/30 18:28:51;;;;;;;11.30;5.90;;;22.30;71.20;;;;;;2075751;28;20130;-88
2022/07/30 18:29:52;;;;;;;7.70;4.33;;;22.30;71.20;;;;;;2080179;28;20069;-88
2022/07/30 18:30:53;;;;;;;7.90;4.43;;;22.30;71.40;;;;;;2074888;28;20459;-88
2022/07/30 18:31:54;;;;;;;13.57;5.93;;;22.30;71.60;;;;;;2090496;28;20029;-87
2022/07/30 18:32:55;;;;;;;9.03;4.83;;;22.30;71.40;;;;;;2084420;28;20044;-88
2022/07/30 18:33:56;;;;;;;7.13;3.83;;;22.30;71.30;;;;;;2069101;28;20054;-87
2022/07/30 18:34:57;;;;;;;6.27;2.90;;;22.30;71.30;;;;;;2084056;28;20324;-88
2022/07/30 18:35:58;;;;;;;3.80;2.30;;;22.30;71.30;;;;;;2081706;28;20473;-88
2022/07/30 18:36:58;;;;;;;2.67;1.80;;;22.30;71.30;;;;;;2076323;28;20032;-87
2022/07/30 18:37:59;;;;;;;9.87;4.47;;;22.20;71.10;;;;;;2077650;28;20266;-87
2022/07/30 18:39:00;;;;;;;11.30;5.23;;;22.20;71.30;;;;;;2090081;28;20119;-88
2022/07/30 18:40:02;;;;;;;4.77;2.97;;;22.20;71.50;;;;;;2086746;28;20065;-87
2022/07/30 18:41:02;;;;;;;3.30;2.42;;;22.20;71.40;;;;;;2090883;28;20427;-87
2022/07/30 18:42:04;;;;;;;8.67;4.53;;;22.30;71.40;;;;;;2086696;28;20112;-87
2022/07/30 18:43:05;;;;;;;10.98;5.60;;;22.30;71.40;;;;;;2095223;28;20033;-86
2022/07/30 18:44:05;;;;;;;16.23;9.80;;;22.30;71.30;;;;;;2093044;28;20518;-87
2022/07/30 18:45:07;;;;;;;9.93;6.17;;;22.20;71.20;;;;;;2090639;28;20021;-87
2022/07/30 18:46:08;;;;;;;5.50;3.50;;;22.30;71.30;;;;;;2081726;28;20507;-87
2022/07/30 18:47:09;;;;;;;5.40;3.20;;;22.30;71.20;;;;;;2081600;28;20021;-87
2022/07/30 18:48:10;;;;;;;14.70;5.60;;;22.20;71.20;;;;;;2074255;28;20022;-86
2022/07/30 18:49:11;;;;;;;14.43;8.30;;;22.20;71.20;;;;;;2076465;28;20030;-86
2022/07/30 18:50:13;;;;;;;11.57;7.53;;;22.20;71.40;;;;;;2082646;28;20305;-86
2022/07/30 18:51:14;;;;;;;9.30;5.57;;;22.20;71.20;;;;;;2085668;28;20028;-86
2022/07/30 18:52:15;;;;;;;4.60;2.95;;;22.20;71.20;;;;;;2079953;28;20029;-86
2022/07/30 18:53:16;;;;;;;10.27;4.10;;;22.20;71.20;;;;;;2076289;28;20085;-87
2022/07/30 18:54:17;;;;;;;3.47;1.60;;;22.20;71.10;;;;;;2074455;28;20074;-87
2022/07/30 18:55:19;;;;;;;6.83;2.87;;;22.20;71.40;;;;;;2080792;28;20428;-86
2022/07/30 18:56:20;;;;;;;5.68;2.20;;;22.20;71.30;;;;;;2102062;28;20052;-86
2022/07/30 18:57:21;;;;;;;8.50;5.53;;;22.20;71.20;;;;;;2091234;28;20021;-86
2022/07/30 18:58:22;;;;;;;3.67;2.77;;;22.20;71.10;;;;;;2086009;28;20645;-86
2022/07/30 18:59:23;;;;;;;4.10;1.97;;;22.20;71.30;;;;;;2086569;28;20067;-86
2022/07/30 19:00:24;;;;;;;6.13;2.60;;;22.30;71.20;;;;;;2084027;28;20099;-86
2022/07/30 19:01:25;;;;;;;6.20;3.17;;;22.20;71.20;;;;;;2084835;28;20259;-86
2022/07/30 19:02:26;;;;;;;3.03;1.77;;;22.20;71.30;;;;;;2090376;28;20025;-86
2022/07/30 19:03:27;;;;;;;3.53;1.67;;;22.20;71.70;;;;;;2090368;28;20543;-87
2022/07/30 19:04:27;;;;;;;4.63;2.20;;;22.20;71.40;;;;;;2081591;28;20026;-87
2022/07/30 19:05:28;;;;;;;13.30;5.33;;;22.20;71.40;;;;;;2077541;28;20041;-88
2022/07/30 19:06:30;;;;;;;2.97;2.10;;;22.20;71.60;;;;;;2081335;28;20025;-86
2022/07/30 19:07:31;;;;;;;5.40;3.42;;;22.20;71.80;;;;;;2083663;28;20345;-86
2022/07/30 19:08:31;;;;;;;3.57;2.50;;;22.20;71.60;;;;;;2089246;28;20040;-86
2022/07/30 19:09:32;;;;;;;6.97;2.63;;;22.20;71.60;;;;;;2086633;28;20064;-86
2022/07/30 19:10:33;;;;;;;8.85;4.82;;;22.20;71.50;;;;;;2086650;28;20049;-85
2022/07/30 19:11:34;;;;;;;6.20;2.63;;;22.20;71.60;;;;;;2083156;28;20026;-85
2022/07/30 19:12:35;;;;;;;3.27;2.17;;;22.20;72.00;;;;;;2091399;28;20021;-86
2022/07/30 19:13:38;;;;;;;5.80;2.17;;;22.30;72.20;;;;;;2081966;28;20470;-85
2022/07/30 19:14:39;;;;;;;1.98;1.45;;;22.30;71.80;;;;;;2090047;28;20025;-85
2022/07/30 19:15:40;;;;;;;2.33;1.57;;;22.20;71.80;;;;;;2076618;28;20049;-86
2022/07/30 19:16:42;;;;;;;2.73;1.73;;;22.30;71.90;;;;;;2072390;28;20318;-86
2022/07/30 19:17:43;;;;;;;15.13;7.82;;;22.20;71.80;;;;;;2082541;28;20040;-85
2022/07/30 19:18:44;;;;;;;13.90;7.53;;;22.20;71.70;;;;;;2081373;28;20022;-85
2022/07/30 19:19:45;;;;;;;6.53;3.10;;;22.20;71.60;;;;;;2082295;28;20029;-85
2022/07/30 19:20:46;;;;;;;7.53;3.50;;;22.20;71.60;;;;;;2090534;28;20036;-86
2022/07/30 19:21:47;;;;;;;9.30;5.43;;;22.20;71.60;;;;;;2089496;28;20025;-86
2022/07/30 19:22:48;;;;;;;6.80;2.80;;;22.20;71.80;;;;;;2087645;28;20037;-85
2022/07/30 19:23:49;;;;;;;7.82;3.00;;;22.10;71.90;;;;;;2084145;28;20025;-86
2022/07/30 19:24:49;;;;;;;4.80;2.60;;;22.20;72.10;;;;;;2090013;28;20029;-86
2022/07/30 19:25:50;;;;;;;5.30;2.80;;;22.10;72.00;;;;;;2077913;28;20092;-88
2022/07/30 19:26:51;;;;;;;6.87;3.93;;;22.20;72.20;;;;;;2088852;28;20025;-86
2022/07/30 19:27:52;;;;;;;8.43;3.70;;;22.10;72.30;;;;;;2094072;28;20029;-86
2022/07/30 19:28:53;;;;;;;3.63;2.33;;;22.10;72.30;;;;;;2085560;28;20527;-86
2022/07/30 19:29:53;;;;;;;3.43;1.30;;;22.20;72.40;;;;;;2078268;28;20279;-85
2022/07/30 19:30:54;;;;;;;3.63;2.13;;;22.10;72.50;;;;;;2076635;28;20013;-86
2022/07/30 19:31:55;;;;;;;2.47;1.60;;;22.10;72.30;;;;;;2094287;28;20455;-86
2022/07/30 19:33:06;;;;;;;3.80;1.93;;;22.10;72.40;;;;;;2073533;28;20105;-86
2022/07/30 19:34:09;;;;;;;3.33;1.70;;;22.10;72.60;;;;;;2088046;28;20017;-86
2022/07/30 19:35:10;;;;;;;5.22;1.90;;;22.10;72.70;;;;;;2085741;28;20025;-86
2022/07/30 19:36:13;;;;;;;3.13;1.90;;;22.20;72.80;;;;;;2086110;28;20052;-86
2022/07/30 19:37:14;;;;;;;4.05;2.00;;;22.10;72.80;;;;;;2089338;28;20116;-86
2022/07/30 19:38:15;;;;;;;3.90;2.10;;;22.10;72.70;;;;;;2082963;28;20026;-85
2022/07/30 19:39:16;;;;;;;4.07;1.90;;;22.10;72.70;;;;;;2079325;28;20057;-86
2022/07/30 19:40:17;;;;;;;5.75;2.13;;;22.10;73.00;;;;;;2096872;28;20398;-87
2022/07/30 19:41:18;;;;;;;4.73;1.83;;;22.10;72.80;;;;;;2084023;28;20021;-87
2022/07/30 19:42:19;;;;;;;3.53;1.95;;;22.10;72.70;;;;;;2080635;28;20026;-86
2022/07/30 19:43:21;;;;;;;1.63;1.23;;;22.10;72.90;;;;;;2079709;28;20621;-86
2022/07/30 19:44:22;;;;;;;4.00;2.05;;;22.10;72.80;;;;;;2084054;28;20096;-85
2022/07/30 19:45:29;;;;;;;3.50;1.73;;;22.10;73.00;;;;;;2087915;28;20127;-86
2022/07/30 19:46:30;;;;;;;4.55;2.05;;;22.10;73.10;;;;;;2100320;28;20340;-85
2022/07/30 19:47:31;;;;;;;3.70;2.23;;;22.10;73.20;;;;;;2091671;28;20108;-86
2022/07/30 19:48:34;;;;;;;3.17;1.80;;;22.10;73.50;;;;;;2070036;28;20037;-85
2022/07/30 19:49:39;;;;;;;3.95;1.90;;;22.10;73.60;;;;;;2087495;28;20041;-85
2022/07/30 19:50:40;;;;;;;3.80;1.98;;;22.10;73.90;;;;;;2083953;28;20030;-85
2022/07/30 19:51:41;;;;;;;2.35;1.42;;;22.10;74.10;;;;;;2097804;28;20417;-85
2022/07/30 19:52:42;;;;;;;2.72;1.40;;;22.10;74.10;;;;;;2091206;28;20447;-86
2022/07/30 19:53:43;;;;;;;2.93;1.73;;;22.10;74.30;;;;;;2099414;28;20016;-85
2022/07/30 19:54:44;;;;;;;5.78;1.55;;;22.00;74.60;;;;;;2101832;28;20028;-85
2022/07/30 19:55:45;;;;;;;3.42;1.70;;;22.00;74.70;;;;;;2090014;28;20033;-85
2022/07/30 19:56:46;;;;;;;3.27;1.90;;;22.00;74.70;;;;;;2089480;28;20017;-86
2022/07/30 19:57:47;;;;;;;3.13;1.77;;;22.00;74.90;;;;;;2081455;28;20089;-84
2022/07/30 19:58:48;;;;;;;3.00;1.80;;;22.00;74.80;;;;;;2089973;28;20047;-85
2022/07/30 19:59:48;;;;;;;3.53;2.00;;;22.00;74.80;;;;;;2083601;28;20037;-86
2022/07/30 20:00:49;;;;;;;3.37;1.70;;;22.00;74.70;;;;;;2083629;28;20057;-85
2022/07/30 20:01:50;;;;;;;4.90;1.70;;;22.00;74.60;;;;;;2097337;28;20029;-86
2022/07/30 20:02:51;;;;;;;3.77;1.73;;;22.00;74.60;;;;;;2091217;28;20036;-86
2022/07/30 20:03:52;;;;;;;4.10;2.20;;;22.00;74.80;;;;;;2092690;28;20035;-85
2022/07/30 20:04:53;;;;;;;4.00;1.83;;;22.00;74.80;;;;;;2083689;28;20030;-86
2022/07/30 20:05:54;;;;;;;3.65;1.70;;;22.00;75.00;;;;;;2083615;28;20420;-86
2022/07/30 20:06:56;;;;;;;4.30;2.10;;;22.00;75.00;;;;;;2084326;28;20052;-85